createdAt,value
2023-05-05T00:02:00.302Z,95606.09
2023-05-05T00:04:26.593Z,95603.38
2023-05-05T00:06:53.764Z,95607.44
2023-05-05T00:09:21.880Z,95603.66
2023-05-05T00:11:48.207Z,95605.22
2023-05-05T00:14:14.730Z,95603.06
2023-05-05T00:16:41.081Z,95610.63
2023-05-05T00:19:07.443Z,95601.72
2023-05-05T00:21:33.711Z,95595.75
2023-05-05T00:24:00.640Z,95597.91
2023-05-05T00:26:26.969Z,95596.28
2023-05-05T00:28:53.302Z,95598.91
2023-05-05T00:31:19.663Z,95599.97
2023-05-05T00:33:46.008Z,95598.88
2023-05-05T00:36:13.990Z,95596.69
2023-05-05T00:38:40.295Z,95593.94
2023-05-05T00:41:07.278Z,95594.72
2023-05-05T00:43:33.672Z,95593.34
2023-05-05T00:46:02.308Z,95605.75
2023-05-05T00:48:29.824Z,95597.97
2023-05-05T00:50:56.568Z,95598.25
2023-05-05T00:53:24.051Z,95601.72
2023-05-05T00:55:51.365Z,95606.03
2023-05-05T00:58:18.616Z,95596.25
2023-05-05T01:00:44.939Z,95596.47
2023-05-05T01:03:12.285Z,95590.75
2023-05-05T01:05:55.932Z,95580.50
2023-05-05T01:08:37.217Z,95581.56
2023-05-05T01:11:11.673Z,95583.69
2023-05-05T01:13:47.840Z,95585.00
2023-05-05T01:16:19.619Z,95580.13
2023-05-05T01:18:52.253Z,95572.19
2023-05-05T01:21:26.301Z,95578.97
2023-05-05T01:24:26.978Z,95590.00
2023-05-05T01:27:11.035Z,95585.38
2023-05-05T01:29:47.281Z,95585.06
2023-05-05T01:32:16.131Z,95583.13
2023-05-05T01:34:52.698Z,95582.81
2023-05-05T01:37:22.629Z,95574.47
2023-05-05T01:39:55.282Z,95571.41
2023-05-05T01:42:23.203Z,95578.75
2023-05-05T01:44:51.970Z,95583.38
2023-05-05T01:47:21.783Z,95582.81
2023-05-05T01:49:49.731Z,95583.63
2023-05-05T01:52:17.243Z,95578.44
2023-05-05T01:54:44.695Z,95582.50
2023-05-05T01:57:13.181Z,95586.00
2023-05-05T01:59:40.287Z,95583.88
2023-05-05T02:02:09.895Z,95580.38
2023-05-05T02:04:40.751Z,95581.44
2023-05-05T02:07:08.370Z,95586.31
2023-05-05T02:09:36.639Z,95587.13
2023-05-05T02:12:05.506Z,95583.63
2023-05-05T02:14:33.670Z,95585.50
2023-05-05T02:17:00.677Z,95595.78
2023-05-05T02:19:30.167Z,95590.13
2023-05-05T02:21:57.252Z,95583.94
2023-05-05T02:24:24.016Z,95593.63
2023-05-05T02:26:52.710Z,95592.00
2023-05-05T02:29:22.223Z,95589.56
2023-05-05T02:31:52.865Z,95593.63
2023-05-05T02:34:24.027Z,95589.63
2023-05-05T02:36:53.185Z,95588.50
2023-05-05T02:39:25.367Z,95585.03
2023-05-05T02:41:53.763Z,95584.78
2023-05-05T02:44:22.236Z,95588.84
2023-05-05T02:46:48.992Z,95595.84
2023-05-05T02:49:15.409Z,95590.19
2023-05-05T02:51:41.732Z,95591.03
2023-05-05T02:54:08.185Z,95591.84
2023-05-05T02:56:40.351Z,95592.34
2023-05-05T02:59:20.366Z,95583.69
2023-05-05T03:01:56.405Z,95590.69
2023-05-05T03:04:26.953Z,95589.06
2023-05-05T03:06:57.938Z,95584.19
2023-05-05T03:09:27.674Z,95586.38
2023-05-05T03:12:00.574Z,95590.19
2023-05-05T03:14:32.111Z,95592.56
2023-05-05T03:17:00.862Z,95597.16
2023-05-05T03:19:29.059Z,95592.31
2023-05-05T03:21:55.894Z,95594.78
2023-05-05T03:24:22.261Z,95592.13
2023-05-05T03:26:49.573Z,95590.25
2023-05-05T03:29:16.680Z,95598.09
2023-05-05T03:31:43.047Z,95595.09
2023-05-05T03:34:09.377Z,95594.53
2023-05-05T03:36:36.113Z,95597.78
2023-05-05T03:39:02.894Z,95594.53
2023-05-05T03:41:29.245Z,95599.88
2023-05-05T03:43:55.689Z,95593.38
2023-05-05T03:46:22.621Z,95595.78
2023-05-05T03:48:48.945Z,95597.34
2023-05-05T03:51:15.695Z,95592.72
2023-05-05T03:53:42.041Z,95601.06
2023-05-05T03:56:08.516Z,95594.34
2023-05-05T03:58:34.896Z,95592.78
2023-05-05T04:01:01.385Z,95594.44
2023-05-05T04:03:28.435Z,95590.97
2023-05-05T04:05:55.142Z,95593.41
2023-05-05T04:08:21.501Z,95592.66
2023-05-05T04:10:47.789Z,95595.13
2023-05-05T04:13:14.130Z,95604.91
2023-05-05T04:15:44.190Z,95607.91
2023-05-05T04:18:10.560Z,95604.13
2023-05-05T04:20:37.744Z,95609.03
2023-05-05T04:23:04.202Z,95602.06
2023-05-05T04:25:30.789Z,95608.84
2023-05-05T04:27:57.066Z,95607.25
2023-05-05T04:30:23.396Z,95612.69
2023-05-05T04:32:49.818Z,95607.31
2023-05-05T04:35:16.513Z,95613.31
2023-05-05T04:37:43.513Z,95619.81
2023-05-05T04:40:10.481Z,95614.16
2023-05-05T04:42:36.898Z,95624.44
2023-05-05T04:45:03.683Z,95620.13
2023-05-05T04:47:30.055Z,95613.44
2023-05-05T04:49:56.368Z,95615.63
2023-05-05T04:52:22.730Z,95625.69
2023-05-05T04:54:49.667Z,95626.22
2023-05-05T04:57:15.971Z,95622.81
2023-05-05T04:59:42.298Z,95615.84
2023-05-05T05:02:08.605Z,95615.94
2023-05-05T05:04:34.988Z,95616.00
2023-05-05T05:07:01.273Z,95620.38
2023-05-05T05:09:27.598Z,95616.31
2023-05-05T05:11:58.864Z,95616.84
2023-05-05T05:14:25.158Z,95610.03
2023-05-05T05:16:51.695Z,95613.81
2023-05-05T05:19:18.128Z,95612.16
2023-05-05T05:21:44.538Z,95615.91
2023-05-05T05:24:10.912Z,95616.72
2023-05-05T05:26:37.298Z,95621.28
2023-05-05T05:29:04.495Z,95623.91
2023-05-05T05:31:30.824Z,95613.72
2023-05-05T05:33:57.146Z,95622.88
2023-05-05T05:36:23.443Z,95617.91
2023-05-05T05:38:49.758Z,95615.94
2023-05-05T05:41:16.735Z,95613.59
2023-05-05T05:43:43.081Z,95610.13
2023-05-05T05:46:10.060Z,95602.19
2023-05-05T05:48:36.378Z,95603.94
2023-05-05T05:51:02.745Z,95602.13
2023-05-05T05:53:29.109Z,95600.72
2023-05-05T05:55:55.410Z,95601.56
2023-05-05T05:58:21.735Z,95592.88
2023-05-05T06:00:48.140Z,95591.09
2023-05-05T06:03:15.305Z,95585.47
2023-05-05T06:05:41.689Z,95582.75
2023-05-05T06:08:08.404Z,95580.31
2023-05-05T06:10:35.245Z,95576.84
2023-05-05T06:13:01.848Z,95578.44
2023-05-05T06:15:28.178Z,95582.22
2023-05-05T06:17:54.480Z,95590.09
2023-05-05T06:20:21.482Z,95582.72
2023-05-05T06:22:47.820Z,95584.41
2023-05-05T06:25:14.390Z,95571.22
2023-05-05T06:27:40.750Z,95577.88
2023-05-05T06:30:08.746Z,95579.88
2023-05-05T06:32:35.294Z,95580.78
2023-05-05T06:35:01.795Z,95581.75
2023-05-05T06:37:28.784Z,95580.63
2023-05-05T06:39:56.008Z,95582.06
2023-05-05T06:42:22.383Z,95579.00
2023-05-05T06:44:48.718Z,95583.69
2023-05-05T06:47:14.973Z,95583.81
2023-05-05T06:49:41.266Z,95576.88
2023-05-05T06:52:07.781Z,95576.88
2023-05-05T06:54:34.778Z,95577.19
2023-05-05T06:57:01.117Z,95573.81
2023-05-05T06:59:27.413Z,95576.56
2023-05-05T07:01:53.778Z,95578.66
2023-05-05T07:04:20.914Z,95583.78
2023-05-05T07:06:47.222Z,95582.94
2023-05-05T07:09:14.773Z,95580.97
2023-05-05T07:11:42.690Z,95587.91
2023-05-05T07:14:09.070Z,95584.59
2023-05-05T07:16:36.408Z,95589.72
2023-05-05T07:19:04.733Z,95578.00
2023-05-05T07:21:31.441Z,95584.41
2023-05-05T07:23:57.738Z,95594.06
2023-05-05T07:26:24.508Z,95577.81
2023-05-05T07:28:51.571Z,95581.66
2023-05-05T07:31:18.564Z,95580.13
2023-05-05T07:33:44.961Z,95584.44
2023-05-05T07:36:11.557Z,95578.84
2023-05-05T07:38:37.854Z,95582.53
2023-05-05T07:41:04.371Z,95581.78
2023-05-05T07:43:30.708Z,95578.50
2023-05-05T07:45:57.669Z,95581.38
2023-05-05T07:48:24.060Z,95575.94
2023-05-05T07:50:51.736Z,95578.38
2023-05-05T07:53:18.057Z,95571.19
2023-05-05T07:55:44.635Z,95574.28
2023-05-05T07:58:11.050Z,95580.16
2023-05-05T08:00:37.494Z,95577.19
2023-05-05T08:03:04.735Z,95569.19
2023-05-05T08:05:31.236Z,95573.81
2023-05-05T08:07:57.534Z,95571.06
2023-05-05T08:10:23.883Z,95558.00
2023-05-05T08:12:50.207Z,95571.78
2023-05-05T08:15:16.764Z,95569.13
2023-05-05T08:17:45.249Z,95574.38
2023-05-05T08:20:12.571Z,95567.06
2023-05-05T08:22:38.902Z,95563.97
2023-05-05T08:25:06.387Z,95561.97
2023-05-05T08:27:34.547Z,95559.41
2023-05-05T08:30:00.875Z,95557.88
2023-05-05T08:32:29.122Z,95559.19
2023-05-05T08:34:56.409Z,95543.72
2023-05-05T08:37:23.441Z,95551.59
2023-05-05T08:39:49.741Z,95546.66
2023-05-05T08:42:25.508Z,95552.91
2023-05-05T08:44:59.572Z,95547.97
2023-05-05T08:47:26.171Z,95554.97
2023-05-05T08:49:55.206Z,95554.16
2023-05-05T08:52:23.881Z,95553.97
2023-05-05T08:54:57.029Z,95559.03
2023-05-05T08:57:30.306Z,95555.84
2023-05-05T08:59:58.097Z,95560.28
2023-05-05T09:02:27.738Z,95558.66
2023-05-05T09:04:54.315Z,95550.41
2023-05-05T09:07:20.817Z,95559.72
2023-05-05T09:09:48.909Z,95551.28
2023-05-05T09:12:17.174Z,95550.38
2023-05-05T09:14:45.563Z,95543.31
2023-05-05T09:17:22.726Z,95549.53
2023-05-05T09:20:03.511Z,95550.88
2023-05-05T09:22:33.724Z,95546.16
2023-05-05T09:25:00.763Z,95542.97
2023-05-05T09:27:27.302Z,95538.03
2023-05-05T09:29:54.002Z,95531.91
2023-05-05T09:32:20.325Z,95533.06
2023-05-05T09:34:57.019Z,95532.63
2023-05-05T09:37:27.697Z,95537.75
2023-05-05T09:39:54.996Z,95541.38
2023-05-05T09:42:22.021Z,95535.47
2023-05-05T09:44:48.448Z,95527.38
2023-05-05T09:47:28.505Z,95522.94
2023-05-05T09:49:59.146Z,95528.91
2023-05-05T09:52:25.528Z,95522.72
2023-05-05T09:54:55.613Z,95521.97
2023-05-05T09:57:26.656Z,95521.66
2023-05-05T09:59:55.613Z,95523.78
2023-05-05T10:02:31.405Z,95521.53
2023-05-05T10:05:11.865Z,95518.41
2023-05-05T10:07:39.602Z,95518.97
2023-05-05T10:10:07.942Z,95513.44
2023-05-05T10:12:36.202Z,95523.56
2023-05-05T10:15:03.618Z,95518.38
2023-05-05T10:17:32.068Z,95515.78
2023-05-05T10:20:00.842Z,95519.03
2023-05-05T10:22:32.477Z,95513.38
2023-05-05T10:25:02.742Z,95513.47
2023-05-05T10:27:39.185Z,95506.06
2023-05-05T10:30:07.792Z,95506.13
2023-05-05T10:35:10.599Z,95506.44
2023-05-05T10:37:38.629Z,95504.97
2023-05-05T10:40:06.601Z,95491.38
2023-05-05T10:42:33.185Z,95485.16
2023-05-05T10:44:59.489Z,95487.53
2023-05-05T10:47:27.835Z,95482.41
2023-05-05T10:49:59.468Z,95481.31
2023-05-05T10:52:34.203Z,95479.13
2023-05-05T10:55:08.574Z,95469.19
2023-05-05T10:57:39.134Z,95468.81
2023-05-05T11:00:07.814Z,95473.31
2023-05-05T11:02:35.495Z,95461.88
2023-05-05T11:05:16.904Z,95465.69
2023-05-05T11:07:43.909Z,95466.63
2023-05-05T11:10:11.701Z,95462.69
2023-05-05T11:13:25.883Z,95460.56
2023-05-05T11:15:53.612Z,95457.13
2023-05-05T11:18:34.827Z,95455.47
2023-05-05T11:21:17.962Z,95455.63
2023-05-05T11:23:46.461Z,95447.34
2023-05-05T11:26:14.007Z,95450.88
2023-05-05T11:29:10.691Z,95444.09
2023-05-05T11:31:37.059Z,95449.81
2023-05-05T11:34:27.362Z,95436.84
2023-05-05T11:36:57.246Z,95439.78
2023-05-05T11:39:32.446Z,95435.34
2023-05-05T11:42:12.569Z,95432.03
2023-05-05T11:44:39.075Z,95437.75
2023-05-05T11:47:25.293Z,95434.97
2023-05-05T11:49:52.344Z,95435.19
2023-05-05T11:52:18.734Z,95431.31
2023-05-05T11:54:47.226Z,95426.97
2023-05-05T11:57:14.204Z,95426.44
2023-05-05T11:59:51.330Z,95427.38
2023-05-05T12:02:18.725Z,95420.16
2023-05-05T12:04:46.163Z,95417.19
2023-05-05T12:07:15.344Z,95423.59
2023-05-05T12:09:43.136Z,95417.72
2023-05-05T12:12:09.709Z,95425.63
2023-05-05T12:14:36.105Z,95417.72
2023-05-05T12:17:07.394Z,95409.34
2023-05-05T12:19:34.195Z,95420.16
2023-05-05T12:22:01.248Z,95416.59
2023-05-05T12:24:29.543Z,95413.75
2023-05-05T12:27:06.503Z,95401.28
2023-05-05T12:29:32.925Z,95393.38
2023-05-05T12:31:59.518Z,95388.28
2023-05-05T12:34:26.636Z,95389.44
2023-05-05T12:36:53.283Z,95389.28
2023-05-05T12:39:19.894Z,95385.81
2023-05-05T12:41:46.953Z,95388.75
2023-05-05T12:44:13.402Z,95380.81
2023-05-05T12:46:46.136Z,95371.28
2023-05-05T12:49:12.549Z,95373.28
2023-05-05T12:51:39.203Z,95373.06
2023-05-05T12:54:07.088Z,95374.50
2023-05-05T12:56:35.561Z,95377.09
2023-05-05T12:59:04.132Z,95380.09
2023-05-05T13:01:30.978Z,95379.84
2023-05-05T13:04:10.735Z,95373.72
2023-05-05T13:06:37.838Z,95367.81
2023-05-05T13:09:04.999Z,95355.09
2023-05-05T13:11:34.929Z,95360.56
2023-05-05T13:14:01.894Z,95348.31
2023-05-05T13:16:28.256Z,95351.16
2023-05-05T13:18:54.835Z,95345.91
2023-05-05T13:21:21.129Z,95351.31
2023-05-05T13:23:47.576Z,95345.56
2023-05-05T13:26:14.221Z,95343.53
2023-05-05T13:28:40.874Z,95329.72
2023-05-05T13:31:08.095Z,95329.19
2023-05-05T13:33:35.105Z,95319.25
2023-05-05T13:36:02.339Z,95315.28
2023-05-05T13:38:28.678Z,95315.69
2023-05-05T13:40:55.052Z,95315.34
2023-05-05T13:43:21.392Z,95313.69
2023-05-05T13:45:47.684Z,95312.72
2023-05-05T13:48:14.628Z,95304.25
2023-05-05T13:50:40.957Z,95308.88
2023-05-05T13:53:07.234Z,95292.78
2023-05-05T13:55:33.661Z,95288.53
2023-05-05T13:58:00.199Z,95276.28
2023-05-05T14:00:27.066Z,95277.19
2023-05-05T14:02:53.548Z,95274.38
2023-05-05T14:05:20.592Z,95277.94
2023-05-05T14:07:47.250Z,95271.94
2023-05-05T14:10:13.617Z,95273.34
2023-05-05T14:12:49.334Z,95268.75
2023-05-05T14:16:10.765Z,95268.19
2023-05-05T14:21:12.959Z,95271.66
2023-05-05T14:23:39.324Z,95263.69
2023-05-05T14:26:05.738Z,95264.47
2023-05-05T14:28:32.112Z,95252.69
2023-05-05T14:31:00.709Z,95266.72
2023-05-05T14:33:26.993Z,95256.53
2023-05-05T14:35:53.398Z,95263.41
2023-05-05T14:38:20.397Z,95254.59
2023-05-05T14:40:46.804Z,95253.94
2023-05-05T14:43:13.093Z,95256.28
2023-05-05T14:45:39.569Z,95259.75
2023-05-05T14:48:05.885Z,95252.16
2023-05-05T14:50:32.219Z,95253.72
2023-05-05T14:52:58.480Z,95258.00
2023-05-05T14:55:25.696Z,95250.59
2023-05-05T14:57:52.048Z,95256.88
2023-05-05T15:00:18.823Z,95241.41
2023-05-05T15:02:47.182Z,95245.44
2023-05-05T15:05:13.559Z,95233.78
2023-05-05T15:07:39.836Z,95240.19
2023-05-05T15:10:07.214Z,95240.41
2023-05-05T15:12:34.445Z,95241.22
2023-05-05T15:15:00.902Z,95238.00
2023-05-05T15:17:27.845Z,95237.22
2023-05-05T15:19:54.178Z,95252.91
2023-05-05T15:22:20.459Z,95251.59
2023-05-05T15:24:46.758Z,95247.50
2023-05-05T15:27:13.218Z,95257.97
2023-05-05T15:29:40.296Z,95243.41
2023-05-05T15:32:06.609Z,95245.41
2023-05-05T15:34:32.968Z,95242.34
2023-05-05T15:36:59.270Z,95237.59
2023-05-05T15:39:25.676Z,95228.88
2023-05-05T15:41:52.123Z,95216.91
2023-05-05T15:44:18.420Z,95219.28
2023-05-05T15:46:45.395Z,95214.41
2023-05-05T15:49:11.786Z,95214.50
2023-05-05T15:51:38.147Z,95210.16
2023-05-05T15:54:05.094Z,95206.97
2023-05-05T15:56:32.306Z,95211.34
2023-05-05T15:58:58.686Z,95204.88
2023-05-05T16:01:28.032Z,95215.91
2023-05-05T16:03:54.998Z,95218.81
2023-05-05T16:06:21.612Z,95224.19
2023-05-05T16:08:50.854Z,95219.22
2023-05-05T16:11:17.403Z,95221.53
2023-05-05T16:13:43.717Z,95222.22
2023-05-05T16:16:10.186Z,95232.09
2023-05-05T16:18:36.493Z,95219.59
2023-05-05T16:21:03.638Z,95211.38
2023-05-05T16:23:29.953Z,95216.22
2023-05-05T16:25:56.359Z,95203.09
2023-05-05T16:28:22.717Z,95196.53
2023-05-05T16:30:49.040Z,95196.50
2023-05-05T16:33:15.336Z,95197.50
2023-05-05T16:35:43.837Z,95190.50
2023-05-05T16:38:10.943Z,95194.94
2023-05-05T16:40:37.465Z,95190.06
2023-05-05T16:43:03.907Z,95188.09
2023-05-05T16:45:30.267Z,95203.22
2023-05-05T16:47:56.604Z,95198.88
2023-05-05T16:50:23.334Z,95198.97
2023-05-05T16:52:50.072Z,95210.59
2023-05-05T16:55:17.210Z,95210.41
2023-05-05T16:57:43.534Z,95211.66
2023-05-05T17:00:11.384Z,95213.78
2023-05-05T17:02:37.706Z,95206.00
2023-05-05T17:05:05.053Z,95212.03
2023-05-05T17:07:31.476Z,95201.19
2023-05-05T17:09:57.778Z,95193.66
2023-05-05T17:12:25.001Z,95196.16
2023-05-05T17:14:51.314Z,95184.72
2023-05-05T17:17:17.834Z,95180.53
2023-05-05T17:19:44.654Z,95187.03
2023-05-05T17:22:10.961Z,95173.72
2023-05-05T17:24:37.286Z,95179.38
2023-05-05T17:27:03.697Z,95178.63
2023-05-05T17:29:30.682Z,95176.81
2023-05-05T17:31:57.027Z,95181.31
2023-05-05T17:34:23.399Z,95180.75
2023-05-05T17:36:49.803Z,95182.63
2023-05-05T17:39:16.064Z,95173.66
2023-05-05T17:41:42.529Z,95178.66
2023-05-05T17:44:08.885Z,95169.88
2023-05-05T17:46:36.606Z,95169.34
2023-05-05T17:49:03.124Z,95151.56
2023-05-05T17:51:30.595Z,95151.56
2023-05-05T17:53:56.963Z,95151.13
2023-05-05T17:56:23.288Z,95146.03
2023-05-05T17:58:49.576Z,95138.97
2023-05-05T18:01:21.864Z,95140.09
2023-05-05T18:03:48.926Z,95138.13
2023-05-05T18:06:15.441Z,95130.63
2023-05-05T18:08:41.887Z,95127.94
2023-05-05T18:11:08.233Z,95118.91
2023-05-05T18:13:34.742Z,95138.97
2023-05-05T18:16:01.157Z,95163.53
2023-05-05T18:18:27.573Z,95183.59
2023-05-05T18:20:54.556Z,95190.94
2023-05-05T18:23:20.838Z,95185.88
2023-05-05T18:25:47.150Z,95182.09
2023-05-05T18:28:13.472Z,95179.38
2023-05-05T18:30:39.897Z,95181.44
2023-05-05T18:33:06.246Z,95210.66
2023-05-05T18:35:32.575Z,95225.22
2023-05-05T18:37:59.655Z,95227.16
2023-05-05T18:40:26.025Z,95236.63
2023-05-05T18:42:52.308Z,95228.19
2023-05-05T18:45:18.957Z,95226.69
2023-05-05T18:47:45.338Z,95235.41
2023-05-05T18:50:12.106Z,95260.72
2023-05-05T18:52:38.491Z,95319.72
2023-05-05T18:55:05.997Z,95429.81
2023-05-05T18:57:32.290Z,95490.06
2023-05-05T18:59:59.684Z,95542.59
2023-05-05T19:02:26.111Z,95544.28
2023-05-05T19:04:52.619Z,95548.59
2023-05-05T19:07:33.826Z,95525.34
2023-05-05T19:10:01.520Z,95553.06
2023-05-05T19:12:28.455Z,95580.38
2023-05-05T19:14:54.743Z,95604.97
2023-05-05T19:17:21.000Z,95610.34
2023-05-05T19:19:47.332Z,95635.91
2023-05-05T19:22:16.489Z,95666.44
2023-05-05T19:24:42.899Z,95667.66
2023-05-05T19:27:13.797Z,95655.97
2023-05-05T19:29:42.729Z,95658.75
2023-05-05T19:32:09.128Z,95658.63
2023-05-05T19:34:35.582Z,95649.06
2023-05-05T19:37:01.912Z,95621.88
2023-05-05T19:39:28.275Z,95614.22
2023-05-05T19:41:54.570Z,95606.59
2023-05-05T19:44:21.937Z,95605.19
2023-05-05T19:46:48.909Z,95615.38
2023-05-05T19:49:15.621Z,95625.06
2023-05-05T19:51:49.456Z,95636.16
2023-05-05T19:54:15.998Z,95634.25
2023-05-05T19:56:42.459Z,95637.25
2023-05-05T19:59:08.797Z,95635.56
2023-05-05T20:01:35.202Z,95634.69
2023-05-05T20:04:03.132Z,95629.84
2023-05-05T20:06:29.553Z,95623.94
2023-05-05T20:08:55.925Z,95616.31
2023-05-05T20:11:22.638Z,95620.94
2023-05-05T20:13:50.100Z,95616.91
2023-05-05T20:16:16.926Z,95613.59
2023-05-05T20:18:43.450Z,95612.78
2023-05-05T20:21:10.430Z,95615.72
2023-05-05T20:23:36.801Z,95621.97
2023-05-05T20:26:03.258Z,95616.53
2023-05-05T20:28:30.640Z,95610.28
2023-05-05T20:30:56.910Z,95617.00
2023-05-05T20:33:23.201Z,95614.03
2023-05-05T20:35:49.486Z,95617.31
2023-05-05T20:38:16.522Z,95621.63
2023-05-05T20:40:42.869Z,95622.13
2023-05-05T20:43:09.171Z,95620.47
2023-05-05T20:45:36.342Z,95626.47
2023-05-05T20:48:03.570Z,95625.91
2023-05-05T20:50:29.977Z,95622.28
2023-05-05T20:52:56.347Z,95623.91
2023-05-05T20:55:25.311Z,95617.13
2023-05-05T20:57:51.632Z,95618.25
2023-05-05T21:00:24.361Z,95611.41
2023-05-05T21:02:50.804Z,95613.59
2023-05-05T21:05:17.498Z,95610.59
2023-05-05T21:07:44.109Z,95604.56
2023-05-05T21:10:11.080Z,95599.41
2023-05-05T21:12:39.863Z,95597.44
2023-05-05T21:15:07.554Z,95595.59
2023-05-05T21:17:34.225Z,95598.25
2023-05-05T21:20:00.848Z,95591.72
2023-05-05T21:22:27.153Z,95592.28
2023-05-05T21:24:53.913Z,95589.00
2023-05-05T21:27:20.521Z,95589.34
2023-05-05T21:29:50.685Z,95600.16
2023-05-05T21:32:17.125Z,95597.81
2023-05-05T21:34:43.575Z,95594.28
2023-05-05T21:37:11.234Z,95596.50
2023-05-05T21:39:37.559Z,95595.06
2023-05-05T21:42:04.224Z,95591.84
2023-05-05T21:44:30.517Z,95594.56
2023-05-05T21:46:57.489Z,95599.13
2023-05-05T21:49:23.777Z,95589.94
2023-05-05T21:51:50.207Z,95592.16
2023-05-05T21:54:16.534Z,95591.06
2023-05-05T21:56:42.833Z,95588.41
2023-05-05T21:59:09.258Z,95582.16
2023-05-05T22:01:36.026Z,95583.75
2023-05-05T22:04:03.130Z,95582.56
2023-05-05T22:06:29.446Z,95582.97
2023-05-05T22:08:56.247Z,95583.38
2023-05-05T22:11:22.565Z,95589.63
2023-05-05T22:13:48.863Z,95584.00
2023-05-05T22:16:16.694Z,95581.56
2023-05-05T22:18:43.019Z,95577.50
2023-05-05T22:21:10.022Z,95585.91
2023-05-05T22:23:36.725Z,95588.34
2023-05-05T22:26:04.096Z,95587.28
2023-05-05T22:28:30.418Z,95583.31
2023-05-05T22:30:56.762Z,95582.88
2023-05-05T22:33:23.613Z,95592.66
2023-05-05T22:35:51.107Z,95588.13
2023-05-05T22:38:18.097Z,95586.56
2023-05-05T22:40:44.605Z,95585.03
2023-05-05T22:43:10.884Z,95575.00
2023-05-05T22:45:37.295Z,95576.91
2023-05-05T22:48:04.181Z,95578.59
2023-05-05T22:50:30.508Z,95578.06
2023-05-05T22:58:23.023Z,95575.00
2023-05-05T23:00:49.449Z,95573.69
2023-05-05T23:03:15.734Z,95576.41
2023-05-05T23:05:41.983Z,95573.75
2023-05-05T23:08:08.363Z,95573.34
2023-05-05T23:10:34.710Z,95579.13
2023-05-05T23:13:01.087Z,95575.44
2023-05-05T23:15:28.270Z,95572.75
2023-05-05T23:17:54.659Z,95572.19
2023-05-05T23:20:21.090Z,95569.66
2023-05-05T23:22:47.441Z,95570.44
2023-05-05T23:25:13.873Z,95571.06
2023-05-05T23:27:40.442Z,95564.81
2023-05-05T23:30:08.262Z,95559.09
2023-05-05T23:32:35.249Z,95557.25
2023-05-05T23:35:01.574Z,95563.19
2023-05-05T23:37:27.955Z,95554.69
2023-05-05T23:39:54.300Z,95554.97
2023-05-05T23:42:20.611Z,95563.94
2023-05-05T23:44:46.909Z,95558.22
2023-05-05T23:47:13.206Z,95559.56
2023-05-05T23:49:40.260Z,95552.22
2023-05-05T23:52:06.648Z,95561.13
2023-05-05T23:54:32.977Z,95558.13
2023-05-05T23:56:59.698Z,95553.50
2023-05-05T23:59:26.027Z,95543.75
